sensor_id;sensor_type;location;lat;lon;timestamp;P1;durP1;ratioP1;P2;durP2;ratioP2
20619;SDS011;10469;42.720;23.252;2024-03-17T00:00:48;29.05;;;19.95;;
20619;SDS011;10469;42.720;23.252;2024-03-17T00:03:14;28.25;;;18.95;;
20619;SDS011;10469;42.720;23.252;2024-03-17T00:05:39;26.88;;;19.55;;
20619;SDS011;10469;42.720;23.252;2024-03-17T00:08:05;29.45;;;20.23;;
20619;SDS011;10469;42.720;23.252;2024-03-17T00:10:31;35.40;;;19.45;;
20619;SDS011;10469;42.720;23.252;2024-03-17T00:12:57;26.20;;;19.27;;
20619;SDS011;10469;42.720;23.252;2024-03-17T00:15:23;29.27;;;20.80;;
20619;SDS011;10469;42.720;23.252;2024-03-17T00:17:49;37.65;;;20.92;;
20619;SDS011;10469;42.720;23.252;2024-03-17T00:20:15;30.42;;;21.30;;
20619;SDS011;10469;42.720;23.252;2024-03-17T00:22:50;28.88;;;20.05;;
20619;SDS011;10469;42.720;23.252;2024-03-17T00:25:18;31.48;;;21.25;;
20619;SDS011;10469;42.720;23.252;2024-03-17T00:27:44;32.53;;;19.95;;
20619;SDS011;10469;42.720;23.252;2024-03-17T00:30:11;29.30;;;20.52;;
20619;SDS011;10469;42.720;23.252;2024-03-17T00:32:41;30.17;;;20.15;;
20619;SDS011;10469;42.720;23.252;2024-03-17T00:35:07;29.20;;;20.85;;
20619;SDS011;10469;42.720;23.252;2024-03-17T00:37:35;31.20;;;21.13;;
20619;SDS011;10469;42.720;23.252;2024-03-17T00:40:01;29.50;;;20.45;;
20619;SDS011;10469;42.720;23.252;2024-03-17T00:42:28;29.52;;;20.85;;
20619;SDS011;10469;42.720;23.252;2024-03-17T00:44:54;29.27;;;20.85;;
20619;SDS011;10469;42.720;23.252;2024-03-17T00:47:21;27.35;;;19.40;;
20619;SDS011;10469;42.720;23.252;2024-03-17T00:49:46;30.85;;;21.15;;
20619;SDS011;10469;42.720;23.252;2024-03-17T00:52:12;29.02;;;20.52;;
20619;SDS011;10469;42.720;23.252;2024-03-17T00:54:38;33.63;;;22.05;;
20619;SDS011;10469;42.720;23.252;2024-03-17T00:57:03;31.65;;;21.50;;
20619;SDS011;10469;42.720;23.252;2024-03-17T00:59:29;29.63;;;21.55;;
20619;SDS011;10469;42.720;23.252;2024-03-17T01:01:54;32.13;;;21.92;;
20619;SDS011;10469;42.720;23.252;2024-03-17T01:04:20;30.15;;;21.02;;
20619;SDS011;10469;42.720;23.252;2024-03-17T01:06:46;30.63;;;21.45;;
20619;SDS011;10469;42.720;23.252;2024-03-17T01:09:11;31.85;;;21.80;;
20619;SDS011;10469;42.720;23.252;2024-03-17T01:35:09;37.72;;;22.38;;
20619;SDS011;10469;42.720;23.252;2024-03-17T01:37:35;29.67;;;21.25;;
20619;SDS011;10469;42.720;23.252;2024-03-17T01:40:00;26.75;;;20.02;;
20619;SDS011;10469;42.720;23.252;2024-03-17T01:42:26;27.17;;;20.17;;
20619;SDS011;10469;42.720;23.252;2024-03-17T01:44:51;33.13;;;19.58;;
20619;SDS011;10469;42.720;23.252;2024-03-17T01:47:17;33.60;;;20.10;;
20619;SDS011;10469;42.720;23.252;2024-03-17T01:49:47;28.45;;;19.38;;
20619;SDS011;10469;42.720;23.252;2024-03-17T01:52:14;30.13;;;20.13;;
20619;SDS011;10469;42.720;23.252;2024-03-17T01:54:41;30.15;;;20.83;;
20619;SDS011;10469;42.720;23.252;2024-03-17T01:57:08;30.63;;;20.70;;
20619;SDS011;10469;42.720;23.252;2024-03-17T01:59:35;29.40;;;20.33;;
20619;SDS011;10469;42.720;23.252;2024-03-17T02:02:01;33.97;;;19.83;;
20619;SDS011;10469;42.720;23.252;2024-03-17T02:04:27;31.35;;;20.40;;
20619;SDS011;10469;42.720;23.252;2024-03-17T02:06:53;25.80;;;20.08;;
20619;SDS011;10469;42.720;23.252;2024-03-17T02:09:18;30.35;;;19.80;;
20619;SDS011;10469;42.720;23.252;2024-03-17T02:11:45;30.48;;;20.40;;
20619;SDS011;10469;42.720;23.252;2024-03-17T02:14:10;27.38;;;18.88;;
20619;SDS011;10469;42.720;23.252;2024-03-17T02:16:39;27.33;;;20.08;;
20619;SDS011;10469;42.720;23.252;2024-03-17T02:19:05;33.08;;;21.50;;
20619;SDS011;10469;42.720;23.252;2024-03-17T02:21:31;33.40;;;21.70;;
20619;SDS011;10469;42.720;23.252;2024-03-17T02:23:56;27.92;;;20.60;;
20619;SDS011;10469;42.720;23.252;2024-03-17T02:26:22;28.58;;;19.75;;
20619;SDS011;10469;42.720;23.252;2024-03-17T02:28:50;30.02;;;20.60;;
20619;SDS011;10469;42.720;23.252;2024-03-17T02:31:16;28.73;;;20.98;;
20619;SDS011;10469;42.720;23.252;2024-03-17T02:33:42;31.27;;;20.38;;
20619;SDS011;10469;42.720;23.252;2024-03-17T02:36:09;31.83;;;20.98;;
20619;SDS011;10469;42.720;23.252;2024-03-17T02:42:05;29.27;;;21.52;;
20619;SDS011;10469;42.720;23.252;2024-03-17T02:44:32;32.45;;;21.65;;
20619;SDS011;10469;42.720;23.252;2024-03-17T02:46:59;34.17;;;20.27;;
20619;SDS011;10469;42.720;23.252;2024-03-17T02:49:25;31.50;;;21.95;;
20619;SDS011;10469;42.720;23.252;2024-03-17T02:52:04;33.13;;;21.02;;
20619;SDS011;10469;42.720;23.252;2024-03-17T02:54:32;29.98;;;21.00;;
20619;SDS011;10469;42.720;23.252;2024-03-17T02:56:58;30.75;;;21.30;;
20619;SDS011;10469;42.720;23.252;2024-03-17T02:59:23;31.02;;;20.65;;
20619;SDS011;10469;42.720;23.252;2024-03-17T03:01:49;31.15;;;21.00;;
20619;SDS011;10469;42.720;23.252;2024-03-17T03:04:15;30.40;;;21.08;;
20619;SDS011;10469;42.720;23.252;2024-03-17T03:06:40;30.10;;;20.90;;
20619;SDS011;10469;42.720;23.252;2024-03-17T03:09:06;31.00;;;20.30;;
20619;SDS011;10469;42.720;23.252;2024-03-17T03:11:38;29.17;;;20.48;;
20619;SDS011;10469;42.720;23.252;2024-03-17T03:14:05;32.47;;;21.52;;
20619;SDS011;10469;42.720;23.252;2024-03-17T03:16:30;30.70;;;20.75;;
20619;SDS011;10469;42.720;23.252;2024-03-17T03:18:56;31.40;;;20.60;;
20619;SDS011;10469;42.720;23.252;2024-03-17T03:21:21;35.70;;;21.98;;
20619;SDS011;10469;42.720;23.252;2024-03-17T03:23:47;33.47;;;21.77;;
20619;SDS011;10469;42.720;23.252;2024-03-17T03:26:13;31.50;;;20.92;;
20619;SDS011;10469;42.720;23.252;2024-03-17T03:28:39;36.75;;;23.00;;
20619;SDS011;10469;42.720;23.252;2024-03-17T03:31:04;30.88;;;21.65;;
20619;SDS011;10469;42.720;23.252;2024-03-17T03:33:30;30.70;;;21.10;;
20619;SDS011;10469;42.720;23.252;2024-03-17T03:35:56;34.80;;;22.27;;
20619;SDS011;10469;42.720;23.252;2024-03-17T03:38:22;32.47;;;21.27;;
20619;SDS011;10469;42.720;23.252;2024-03-17T03:40:51;32.78;;;22.25;;
20619;SDS011;10469;42.720;23.252;2024-03-17T03:43:17;33.22;;;21.77;;
20619;SDS011;10469;42.720;23.252;2024-03-17T03:45:43;35.17;;;22.17;;
20619;SDS011;10469;42.720;23.252;2024-03-17T03:48:08;36.35;;;21.65;;
20619;SDS011;10469;42.720;23.252;2024-03-17T03:50:34;33.92;;;22.42;;
20619;SDS011;10469;42.720;23.252;2024-03-17T03:53:00;30.77;;;22.27;;
20619;SDS011;10469;42.720;23.252;2024-03-17T03:55:26;35.63;;;24.00;;
20619;SDS011;10469;42.720;23.252;2024-03-17T03:57:52;33.20;;;23.63;;
20619;SDS011;10469;42.720;23.252;2024-03-17T04:00:20;38.00;;;23.35;;
20619;SDS011;10469;42.720;23.252;2024-03-17T04:02:47;34.08;;;22.83;;
20619;SDS011;10469;42.720;23.252;2024-03-17T04:05:20;40.97;;;23.67;;
20619;SDS011;10469;42.720;23.252;2024-03-17T04:07:46;33.63;;;23.33;;
20619;SDS011;10469;42.720;23.252;2024-03-17T04:10:14;36.05;;;24.20;;
20619;SDS011;10469;42.720;23.252;2024-03-17T04:12:40;40.83;;;24.88;;
20619;SDS011;10469;42.720;23.252;2024-03-17T04:15:07;39.15;;;24.08;;
20619;SDS011;10469;42.720;23.252;2024-03-17T04:17:35;40.15;;;24.25;;
20619;SDS011;10469;42.720;23.252;2024-03-17T04:20:02;36.75;;;23.38;;
20619;SDS011;10469;42.720;23.252;2024-03-17T04:22:29;36.38;;;22.50;;
20619;SDS011;10469;42.720;23.252;2024-03-17T04:24:54;31.73;;;21.48;;
20619;SDS011;10469;42.720;23.252;2024-03-17T04:27:21;32.03;;;22.67;;
20619;SDS011;10469;42.720;23.252;2024-03-17T04:29:53;35.50;;;21.98;;
20619;SDS011;10469;42.720;23.252;2024-03-17T04:32:19;32.55;;;21.27;;
20619;SDS011;10469;42.720;23.252;2024-03-17T04:34:45;35.63;;;23.70;;
20619;SDS011;10469;42.720;23.252;2024-03-17T04:37:12;40.95;;;24.08;;
20619;SDS011;10469;42.720;23.252;2024-03-17T04:39:38;39.85;;;23.70;;
20619;SDS011;10469;42.720;23.252;2024-03-17T04:42:08;31.20;;;20.80;;
20619;SDS011;10469;42.720;23.252;2024-03-17T04:44:34;39.38;;;22.73;;
20619;SDS011;10469;42.720;23.252;2024-03-17T04:47:01;33.63;;;22.90;;
20619;SDS011;10469;42.720;23.252;2024-03-17T04:49:30;30.95;;;22.02;;
20619;SDS011;10469;42.720;23.252;2024-03-17T04:51:56;36.35;;;22.00;;
20619;SDS011;10469;42.720;23.252;2024-03-17T04:54:21;31.38;;;21.20;;
20619;SDS011;10469;42.720;23.252;2024-03-17T04:56:47;32.72;;;22.15;;
20619;SDS011;10469;42.720;23.252;2024-03-17T04:59:12;31.70;;;21.25;;
20619;SDS011;10469;42.720;23.252;2024-03-17T05:01:38;35.50;;;21.77;;
20619;SDS011;10469;42.720;23.252;2024-03-17T05:04:03;38.13;;;22.63;;
20619;SDS011;10469;42.720;23.252;2024-03-17T05:06:29;36.08;;;21.02;;
20619;SDS011;10469;42.720;23.252;2024-03-17T05:08:55;37.47;;;22.88;;
20619;SDS011;10469;42.720;23.252;2024-03-17T05:11:20;38.70;;;21.95;;
20619;SDS011;10469;42.720;23.252;2024-03-17T05:13:46;34.28;;;21.52;;
20619;SDS011;10469;42.720;23.252;2024-03-17T05:16:11;42.90;;;22.08;;
20619;SDS011;10469;42.720;23.252;2024-03-17T05:18:37;45.90;;;21.35;;
20619;SDS011;10469;42.720;23.252;2024-03-17T05:21:05;40.83;;;20.38;;
20619;SDS011;10469;42.720;23.252;2024-03-17T05:23:32;31.92;;;19.45;;
20619;SDS011;10469;42.720;23.252;2024-03-17T05:25:59;35.47;;;20.67;;
20619;SDS011;10469;42.720;23.252;2024-03-17T05:28:26;33.20;;;20.00;;
20619;SDS011;10469;42.720;23.252;2024-03-17T05:30:53;31.55;;;19.20;;
20619;SDS011;10469;42.720;23.252;2024-03-17T05:33:20;29.02;;;19.13;;
20619;SDS011;10469;42.720;23.252;2024-03-17T05:35:49;34.45;;;19.83;;
20619;SDS011;10469;42.720;23.252;2024-03-17T05:38:25;37.00;;;20.67;;
20619;SDS011;10469;42.720;23.252;2024-03-17T05:40:55;33.72;;;22.10;;
20619;SDS011;10469;42.720;23.252;2024-03-17T05:43:30;31.15;;;19.42;;
20619;SDS011;10469;42.720;23.252;2024-03-17T05:46:06;30.10;;;18.50;;
20619;SDS011;10469;42.720;23.252;2024-03-17T05:48:40;28.60;;;19.23;;
20619;SDS011;10469;42.720;23.252;2024-03-17T05:51:06;32.83;;;19.42;;
20619;SDS011;10469;42.720;23.252;2024-03-17T05:53:33;26.75;;;18.25;;
20619;SDS011;10469;42.720;23.252;2024-03-17T05:56:00;30.50;;;19.35;;
20619;SDS011;10469;42.720;23.252;2024-03-17T05:58:29;33.45;;;20.75;;
20619;SDS011;10469;42.720;23.252;2024-03-17T06:00:55;35.85;;;20.67;;
20619;SDS011;10469;42.720;23.252;2024-03-17T06:03:20;36.85;;;20.92;;
20619;SDS011;10469;42.720;23.252;2024-03-17T06:05:46;32.35;;;21.35;;
20619;SDS011;10469;42.720;23.252;2024-03-17T06:08:12;29.90;;;21.48;;
20619;SDS011;10469;42.720;23.252;2024-03-17T06:10:42;36.28;;;21.55;;
20619;SDS011;10469;42.720;23.252;2024-03-17T06:13:11;33.17;;;21.00;;
20619;SDS011;10469;42.720;23.252;2024-03-17T06:15:38;32.80;;;22.02;;
20619;SDS011;10469;42.720;23.252;2024-03-17T06:18:05;52.08;;;29.67;;
20619;SDS011;10469;42.720;23.252;2024-03-17T06:20:34;53.95;;;33.90;;
20619;SDS011;10469;42.720;23.252;2024-03-17T06:23:00;52.38;;;29.48;;
20619;SDS011;10469;42.720;23.252;2024-03-17T06:25:26;40.50;;;27.95;;
20619;SDS011;10469;42.720;23.252;2024-03-17T06:27:53;45.83;;;27.10;;
20619;SDS011;10469;42.720;23.252;2024-03-17T06:30:19;39.33;;;24.27;;
20619;SDS011;10469;42.720;23.252;2024-03-17T06:32:46;33.13;;;21.65;;
20619;SDS011;10469;42.720;23.252;2024-03-17T06:35:12;33.30;;;22.70;;
20619;SDS011;10469;42.720;23.252;2024-03-17T06:37:43;38.38;;;22.63;;
20619;SDS011;10469;42.720;23.252;2024-03-17T06:40:13;38.53;;;22.08;;
20619;SDS011;10469;42.720;23.252;2024-03-17T06:42:40;31.15;;;20.48;;
20619;SDS011;10469;42.720;23.252;2024-03-17T06:45:06;34.53;;;20.40;;
20619;SDS011;10469;42.720;23.252;2024-03-17T06:47:38;29.35;;;19.88;;
20619;SDS011;10469;42.720;23.252;2024-03-17T06:50:05;33.17;;;20.75;;
20619;SDS011;10469;42.720;23.252;2024-03-17T06:52:31;27.45;;;18.80;;
20619;SDS011;10469;42.720;23.252;2024-03-17T06:54:57;27.70;;;18.88;;
20619;SDS011;10469;42.720;23.252;2024-03-17T06:57:23;32.50;;;19.20;;
20619;SDS011;10469;42.720;23.252;2024-03-17T06:59:49;28.20;;;18.42;;
20619;SDS011;10469;42.720;23.252;2024-03-17T07:15:29;30.55;;;18.85;;
20619;SDS011;10469;42.720;23.252;2024-03-17T07:17:55;27.02;;;17.08;;
20619;SDS011;10469;42.720;23.252;2024-03-17T07:20:21;27.58;;;18.13;;
20619;SDS011;10469;42.720;23.252;2024-03-17T07:22:48;29.08;;;17.42;;
20619;SDS011;10469;42.720;23.252;2024-03-17T07:25:15;28.17;;;16.77;;
20619;SDS011;10469;42.720;23.252;2024-03-17T07:27:40;22.77;;;15.68;;
20619;SDS011;10469;42.720;23.252;2024-03-17T07:30:06;23.55;;;14.55;;
20619;SDS011;10469;42.720;23.252;2024-03-17T07:32:32;25.95;;;14.68;;
20619;SDS011;10469;42.720;23.252;2024-03-17T07:34:57;23.02;;;13.80;;
20619;SDS011;10469;42.720;23.252;2024-03-17T07:37:23;25.38;;;14.80;;
20619;SDS011;10469;42.720;23.252;2024-03-17T07:39:48;21.95;;;14.13;;
20619;SDS011;10469;42.720;23.252;2024-03-17T07:42:14;21.65;;;14.57;;
20619;SDS011;10469;42.720;23.252;2024-03-17T07:44:43;22.55;;;14.45;;
20619;SDS011;10469;42.720;23.252;2024-03-17T07:47:09;23.33;;;13.98;;
20619;SDS011;10469;42.720;23.252;2024-03-17T07:49:35;21.20;;;14.98;;
20619;SDS011;10469;42.720;23.252;2024-03-17T07:52:00;25.20;;;13.88;;
20619;SDS011;10469;42.720;23.252;2024-03-17T07:54:27;24.67;;;15.85;;
20619;SDS011;10469;42.720;23.252;2024-03-17T07:56:53;25.05;;;14.07;;
20619;SDS011;10469;42.720;23.252;2024-03-17T07:59:20;20.05;;;14.23;;
20619;SDS011;10469;42.720;23.252;2024-03-17T08:01:45;21.05;;;14.10;;
20619;SDS011;10469;42.720;23.252;2024-03-17T08:04:11;20.70;;;13.20;;
20619;SDS011;10469;42.720;23.252;2024-03-17T08:06:38;19.27;;;12.35;;
20619;SDS011;10469;42.720;23.252;2024-03-17T08:09:04;22.02;;;13.02;;
20619;SDS011;10469;42.720;23.252;2024-03-17T08:11:30;22.17;;;12.50;;
20619;SDS011;10469;42.720;23.252;2024-03-17T08:13:55;18.63;;;12.93;;
20619;SDS011;10469;42.720;23.252;2024-03-17T08:16:21;20.88;;;12.38;;
20619;SDS011;10469;42.720;23.252;2024-03-17T08:18:46;23.23;;;13.70;;
20619;SDS011;10469;42.720;23.252;2024-03-17T08:21:12;18.10;;;11.38;;
20619;SDS011;10469;42.720;23.252;2024-03-17T08:23:37;20.90;;;11.85;;
20619;SDS011;10469;42.720;23.252;2024-03-17T08:26:12;16.38;;;11.75;;
20619;SDS011;10469;42.720;23.252;2024-03-17T08:28:38;18.23;;;11.32;;
20619;SDS011;10469;42.720;23.252;2024-03-17T08:31:03;18.38;;;11.38;;
20619;SDS011;10469;42.720;23.252;2024-03-17T08:33:30;16.65;;;11.43;;
20619;SDS011;10469;42.720;23.252;2024-03-17T08:35:56;19.35;;;11.63;;
20619;SDS011;10469;42.720;23.252;2024-03-17T08:38:22;17.27;;;10.93;;
20619;SDS011;10469;42.720;23.252;2024-03-17T08:40:52;15.23;;;10.85;;
20619;SDS011;10469;42.720;23.252;2024-03-17T08:46:35;17.52;;;11.00;;
20619;SDS011;10469;42.720;23.252;2024-03-17T08:53:31;22.83;;;11.20;;
20619;SDS011;10469;42.720;23.252;2024-03-17T08:55:58;17.35;;;11.23;;
20619;SDS011;10469;42.720;23.252;2024-03-17T08:58:24;19.95;;;11.40;;
20619;SDS011;10469;42.720;23.252;2024-03-17T09:00:50;14.55;;;10.57;;
20619;SDS011;10469;42.720;23.252;2024-03-17T09:03:19;15.00;;;11.40;;
20619;SDS011;10469;42.720;23.252;2024-03-17T09:05:45;13.90;;;9.98;;
20619;SDS011;10469;42.720;23.252;2024-03-17T09:08:16;20.70;;;11.65;;
20619;SDS011;10469;42.720;23.252;2024-03-17T09:13:14;12.10;;;10.63;;
20619;SDS011;10469;42.720;23.252;2024-03-17T09:15:41;13.20;;;9.75;;
20619;SDS011;10469;42.720;23.252;2024-03-17T09:18:24;13.73;;;9.45;;
20619;SDS011;10469;42.720;23.252;2024-03-17T09:21:00;13.55;;;10.30;;
20619;SDS011;10469;42.720;23.252;2024-03-17T09:23:28;15.43;;;9.98;;
20619;SDS011;10469;42.720;23.252;2024-03-17T09:26:02;10.25;;;8.52;;
20619;SDS011;10469;42.720;23.252;2024-03-17T09:28:29;12.27;;;9.20;;
20619;SDS011;10469;42.720;23.252;2024-03-17T09:30:55;11.50;;;8.70;;
20619;SDS011;10469;42.720;23.252;2024-03-17T09:33:22;13.35;;;9.55;;
20619;SDS011;10469;42.720;23.252;2024-03-17T09:35:58;9.60;;;7.72;;
20619;SDS011;10469;42.720;23.252;2024-03-17T09:38:26;10.43;;;8.52;;
20619;SDS011;10469;42.720;23.252;2024-03-17T09:40:52;13.15;;;8.35;;
20619;SDS011;10469;42.720;23.252;2024-03-17T09:43:20;13.38;;;8.45;;
20619;SDS011;10469;42.720;23.252;2024-03-17T09:45:47;14.63;;;8.88;;
20619;SDS011;10469;42.720;23.252;2024-03-17T09:48:14;14.20;;;8.88;;
20619;SDS011;10469;42.720;23.252;2024-03-17T09:50:43;14.10;;;7.32;;
20619;SDS011;10469;42.720;23.252;2024-03-17T09:53:17;13.80;;;7.65;;
20619;SDS011;10469;42.720;23.252;2024-03-17T09:55:51;10.00;;;7.15;;
20619;SDS011;10469;42.720;23.252;2024-03-17T09:58:20;9.43;;;7.07;;
20619;SDS011;10469;42.720;23.252;2024-03-17T10:00:46;11.40;;;7.57;;
20619;SDS011;10469;42.720;23.252;2024-03-17T10:03:12;9.25;;;7.18;;
20619;SDS011;10469;42.720;23.252;2024-03-17T10:05:59;11.88;;;6.68;;
20619;SDS011;10469;42.720;23.252;2024-03-17T10:08:25;12.10;;;6.88;;
20619;SDS011;10469;42.720;23.252;2024-03-17T10:10:52;13.52;;;7.15;;
20619;SDS011;10469;42.720;23.252;2024-03-17T10:13:19;10.77;;;6.88;;
20619;SDS011;10469;42.720;23.252;2024-03-17T10:15:48;11.98;;;6.55;;
20619;SDS011;10469;42.720;23.252;2024-03-17T10:18:24;11.82;;;7.40;;
20619;SDS011;10469;42.720;23.252;2024-03-17T10:20:49;14.30;;;7.00;;
20619;SDS011;10469;42.720;23.252;2024-03-17T10:23:20;9.93;;;7.03;;
20619;SDS011;10469;42.720;23.252;2024-03-17T10:25:45;14.05;;;7.40;;
20619;SDS011;10469;42.720;23.252;2024-03-17T10:28:12;20.63;;;6.80;;
20619;SDS011;10469;42.720;23.252;2024-03-17T10:30:38;14.65;;;6.78;;
20619;SDS011;10469;42.720;23.252;2024-03-17T10:33:05;9.20;;;7.32;;
20619;SDS011;10469;42.720;23.252;2024-03-17T10:35:34;10.43;;;6.47;;
20619;SDS011;10469;42.720;23.252;2024-03-17T10:38:05;10.02;;;6.28;;
20619;SDS011;10469;42.720;23.252;2024-03-17T10:40:32;15.63;;;6.40;;
20619;SDS011;10469;42.720;23.252;2024-03-17T10:43:01;8.73;;;5.60;;
20619;SDS011;10469;42.720;23.252;2024-03-17T10:45:28;9.15;;;6.10;;
20619;SDS011;10469;42.720;23.252;2024-03-17T10:48:00;15.40;;;6.57;;
20619;SDS011;10469;42.720;23.252;2024-03-17T10:50:31;14.35;;;6.63;;
20619;SDS011;10469;42.720;23.252;2024-03-17T10:53:03;9.60;;;5.55;;
20619;SDS011;10469;42.720;23.252;2024-03-17T10:55:40;10.35;;;5.75;;
20619;SDS011;10469;42.720;23.252;2024-03-17T10:58:52;10.18;;;6.25;;
20619;SDS011;10469;42.720;23.252;2024-03-17T11:01:11;7.28;;;5.07;;
20619;SDS011;10469;42.720;23.252;2024-03-17T11:03:39;5.88;;;4.85;;
20619;SDS011;10469;42.720;23.252;2024-03-17T11:06:05;8.00;;;4.78;;
20619;SDS011;10469;42.720;23.252;2024-03-17T11:08:33;9.70;;;5.10;;
20619;SDS011;10469;42.720;23.252;2024-03-17T11:10:59;6.30;;;4.25;;
20619;SDS011;10469;42.720;23.252;2024-03-17T11:13:29;9.05;;;4.28;;
20619;SDS011;10469;42.720;23.252;2024-03-17T11:15:57;8.05;;;4.30;;
20619;SDS011;10469;42.720;23.252;2024-03-17T11:18:36;4.88;;;3.90;;
20619;SDS011;10469;42.720;23.252;2024-03-17T11:23:55;4.82;;;4.32;;
20619;SDS011;10469;42.720;23.252;2024-03-17T11:26:32;11.77;;;4.60;;
20619;SDS011;10469;42.720;23.252;2024-03-17T11:29:00;5.97;;;4.38;;
20619;SDS011;10469;42.720;23.252;2024-03-17T11:31:35;7.20;;;4.20;;
20619;SDS011;10469;42.720;23.252;2024-03-17T11:34:39;11.32;;;4.93;;
20619;SDS011;10469;42.720;23.252;2024-03-17T11:36:59;4.88;;;4.38;;
20619;SDS011;10469;42.720;23.252;2024-03-17T11:42:23;6.03;;;5.13;;
20619;SDS011;10469;42.720;23.252;2024-03-17T11:45:06;8.18;;;4.85;;
20619;SDS011;10469;42.720;23.252;2024-03-17T11:47:39;5.65;;;4.60;;
20619;SDS011;10469;42.720;23.252;2024-03-17T11:50:06;4.95;;;4.40;;
20619;SDS011;10469;42.720;23.252;2024-03-17T11:52:36;8.90;;;4.68;;
20619;SDS011;10469;42.720;23.252;2024-03-17T11:55:03;6.13;;;4.93;;
20619;SDS011;10469;42.720;23.252;2024-03-17T11:57:29;6.10;;;5.32;;
20619;SDS011;10469;42.720;23.252;2024-03-17T11:59:55;10.90;;;5.28;;
20619;SDS011;10469;42.720;23.252;2024-03-17T12:02:40;12.68;;;5.68;;
20619;SDS011;10469;42.720;23.252;2024-03-17T12:05:07;5.82;;;4.50;;
20619;SDS011;10469;42.720;23.252;2024-03-17T12:07:33;6.32;;;4.50;;
20619;SDS011;10469;42.720;23.252;2024-03-17T12:10:09;7.57;;;4.63;;
20619;SDS011;10469;42.720;23.252;2024-03-17T12:12:36;5.63;;;4.55;;
20619;SDS011;10469;42.720;23.252;2024-03-17T12:15:02;17.35;;;4.65;;
20619;SDS011;10469;42.720;23.252;2024-03-17T12:17:30;6.28;;;5.10;;
20619;SDS011;10469;42.720;23.252;2024-03-17T12:19:56;8.00;;;5.10;;
20619;SDS011;10469;42.720;23.252;2024-03-17T12:22:22;6.60;;;5.68;;
20619;SDS011;10469;42.720;23.252;2024-03-17T12:24:51;11.55;;;5.32;;
20619;SDS011;10469;42.720;23.252;2024-03-17T12:29:48;6.53;;;5.53;;
20619;SDS011;10469;42.720;23.252;2024-03-17T12:34:49;10.60;;;7.25;;
20619;SDS011;10469;42.720;23.252;2024-03-17T12:37:20;6.65;;;5.97;;
20619;SDS011;10469;42.720;23.252;2024-03-17T12:39:47;7.38;;;6.45;;
20619;SDS011;10469;42.720;23.252;2024-03-17T12:42:14;10.00;;;6.20;;
20619;SDS011;10469;42.720;23.252;2024-03-17T12:44:52;9.82;;;6.22;;
20619;SDS011;10469;42.720;23.252;2024-03-17T12:47:19;7.03;;;5.95;;
20619;SDS011;10469;42.720;23.252;2024-03-17T12:49:51;8.43;;;6.18;;
20619;SDS011;10469;42.720;23.252;2024-03-17T12:52:21;16.70;;;6.50;;
20619;SDS011;10469;42.720;23.252;2024-03-17T12:55:03;10.30;;;7.13;;
20619;SDS011;10469;42.720;23.252;2024-03-17T12:58:10;7.60;;;6.20;;
20619;SDS011;10469;42.720;23.252;2024-03-17T13:01:03;13.68;;;7.45;;
20619;SDS011;10469;42.720;23.252;2024-03-17T13:03:36;7.35;;;6.32;;
20619;SDS011;10469;42.720;23.252;2024-03-17T13:06:05;16.60;;;7.13;;
20619;SDS011;10469;42.720;23.252;2024-03-17T13:08:32;9.15;;;6.78;;
20619;SDS011;10469;42.720;23.252;2024-03-17T13:10:58;21.48;;;8.00;;
20619;SDS011;10469;42.720;23.252;2024-03-17T13:13:24;8.63;;;6.93;;
20619;SDS011;10469;42.720;23.252;2024-03-17T13:15:50;8.05;;;7.03;;
20619;SDS011;10469;42.720;23.252;2024-03-17T13:18:17;11.60;;;6.82;;
20619;SDS011;10469;42.720;23.252;2024-03-17T13:20:47;16.08;;;7.43;;
20619;SDS011;10469;42.720;23.252;2024-03-17T13:23:19;12.57;;;7.53;;
20619;SDS011;10469;42.720;23.252;2024-03-17T13:25:49;12.98;;;7.60;;
20619;SDS011;10469;42.720;23.252;2024-03-17T13:28:15;16.10;;;8.20;;
20619;SDS011;10469;42.720;23.252;2024-03-17T13:30:41;8.52;;;7.00;;
20619;SDS011;10469;42.720;23.252;2024-03-17T13:33:08;11.60;;;8.52;;
20619;SDS011;10469;42.720;23.252;2024-03-17T13:35:34;11.57;;;7.63;;
20619;SDS011;10469;42.720;23.252;2024-03-17T13:38:03;8.68;;;7.65;;
20619;SDS011;10469;42.720;23.252;2024-03-17T13:40:31;9.18;;;6.97;;
20619;SDS011;10469;42.720;23.252;2024-03-17T13:42:58;10.82;;;7.70;;
20619;SDS011;10469;42.720;23.252;2024-03-17T13:45:24;10.65;;;7.93;;
20619;SDS011;10469;42.720;23.252;2024-03-17T13:47:56;13.32;;;8.15;;
20619;SDS011;10469;42.720;23.252;2024-03-17T13:50:23;12.07;;;7.43;;
20619;SDS011;10469;42.720;23.252;2024-03-17T13:52:49;9.48;;;7.30;;
20619;SDS011;10469;42.720;23.252;2024-03-17T13:55:19;7.95;;;7.00;;
20619;SDS011;10469;42.720;23.252;2024-03-17T13:57:53;9.68;;;7.35;;
20619;SDS011;10469;42.720;23.252;2024-03-17T14:00:24;13.23;;;8.20;;
20619;SDS011;10469;42.720;23.252;2024-03-17T14:02:51;12.73;;;7.68;;
20619;SDS011;10469;42.720;23.252;2024-03-17T14:05:19;12.70;;;7.80;;
20619;SDS011;10469;42.720;23.252;2024-03-17T14:07:46;11.18;;;6.82;;
20619;SDS011;10469;42.720;23.252;2024-03-17T14:10:13;13.02;;;7.65;;
20619;SDS011;10469;42.720;23.252;2024-03-17T14:12:43;11.48;;;8.15;;
20619;SDS011;10469;42.720;23.252;2024-03-17T14:15:10;12.38;;;7.63;;
20619;SDS011;10469;42.720;23.252;2024-03-17T14:17:37;15.02;;;8.13;;
20619;SDS011;10469;42.720;23.252;2024-03-17T14:20:04;11.18;;;7.63;;
20619;SDS011;10469;42.720;23.252;2024-03-17T14:22:31;10.50;;;7.90;;
20619;SDS011;10469;42.720;23.252;2024-03-17T14:24:57;10.52;;;7.15;;
20619;SDS011;10469;42.720;23.252;2024-03-17T14:27:22;9.88;;;7.55;;
20619;SDS011;10469;42.720;23.252;2024-03-17T14:29:53;10.35;;;7.38;;
20619;SDS011;10469;42.720;23.252;2024-03-17T14:32:19;14.38;;;7.50;;
20619;SDS011;10469;42.720;23.252;2024-03-17T14:34:46;8.75;;;6.97;;
20619;SDS011;10469;42.720;23.252;2024-03-17T14:37:12;10.40;;;7.65;;
20619;SDS011;10469;42.720;23.252;2024-03-17T14:39:37;10.55;;;8.18;;
20619;SDS011;10469;42.720;23.252;2024-03-17T14:42:03;11.93;;;8.45;;
20619;SDS011;10469;42.720;23.252;2024-03-17T14:44:29;11.48;;;8.55;;
20619;SDS011;10469;42.720;23.252;2024-03-17T14:46:55;13.27;;;8.98;;
20619;SDS011;10469;42.720;23.252;2024-03-17T14:49:21;15.10;;;8.43;;
20619;SDS011;10469;42.720;23.252;2024-03-17T14:51:46;10.45;;;8.68;;
20619;SDS011;10469;42.720;23.252;2024-03-17T14:54:12;14.02;;;9.15;;
20619;SDS011;10469;42.720;23.252;2024-03-17T14:56:38;15.90;;;9.52;;
20619;SDS011;10469;42.720;23.252;2024-03-17T14:59:07;12.77;;;9.05;;
20619;SDS011;10469;42.720;23.252;2024-03-17T15:01:33;16.98;;;8.80;;
20619;SDS011;10469;42.720;23.252;2024-03-17T15:03:59;15.68;;;9.70;;
20619;SDS011;10469;42.720;23.252;2024-03-17T15:06:24;11.98;;;9.30;;
20619;SDS011;10469;42.720;23.252;2024-03-17T15:08:52;11.32;;;8.75;;
20619;SDS011;10469;42.720;23.252;2024-03-17T15:11:18;17.88;;;9.50;;
20619;SDS011;10469;42.720;23.252;2024-03-17T15:13:43;11.82;;;8.80;;
20619;SDS011;10469;42.720;23.252;2024-03-17T15:16:10;11.65;;;9.10;;
20619;SDS011;10469;42.720;23.252;2024-03-17T15:18:37;14.07;;;9.52;;
20619;SDS011;10469;42.720;23.252;2024-03-17T15:21:03;13.48;;;9.30;;